createdAt,value
2019-02-26T00:02:03.803Z,99.90
2019-02-26T00:04:35.041Z,99.90
2019-02-26T00:07:04.872Z,99.90
2019-02-26T00:09:35.297Z,99.90
2019-02-26T00:12:05.507Z,99.90
2019-02-26T00:14:35.089Z,99.90
2019-02-26T00:17:08.624Z,99.90
2019-02-26T00:19:36.690Z,99.90
2019-02-26T00:22:07.760Z,99.90
2019-02-26T00:24:39.751Z,99.90
2019-02-26T00:27:09.707Z,99.90
2019-02-26T00:29:39.391Z,99.90
2019-02-26T00:32:09.937Z,99.90
2019-02-26T00:34:41.169Z,99.90
2019-02-26T00:37:10.804Z,99.90
2019-02-26T00:39:40.412Z,99.90
2019-02-26T00:42:10.005Z,99.90
2019-02-26T00:44:39.579Z,99.90
2019-02-26T00:47:09.194Z,99.90
2019-02-26T00:49:39.077Z,99.90
2019-02-26T00:52:28.311Z,99.90
2019-02-26T00:54:59.939Z,99.90
2019-02-26T00:57:31.692Z,99.90
2019-02-26T01:00:03.388Z,99.90
2019-02-26T01:02:33.456Z,99.90
2019-02-26T01:05:04.038Z,99.90
2019-02-26T01:07:34.325Z,99.90
2019-02-26T01:10:05.737Z,99.90
2019-02-26T01:12:37.596Z,99.90
2019-02-26T01:15:13.947Z,99.90
2019-02-26T01:17:43.442Z,99.90
2019-02-26T01:20:16.117Z,99.90
2019-02-26T01:22:46.368Z,99.90
2019-02-26T01:25:18.480Z,99.90
2019-02-26T01:27:48.325Z,99.90
2019-02-26T01:30:23.629Z,99.90
2019-02-26T01:32:50.244Z,99.90
2019-02-26T01:35:19.804Z,99.90
2019-02-26T01:37:51.387Z,99.90
2019-02-26T01:40:23.006Z,99.90
2019-02-26T01:42:55.153Z,99.90
2019-02-26T01:45:24.987Z,99.90
2019-02-26T01:47:55.199Z,99.90
2019-02-26T01:50:24.766Z,99.90
2019-02-26T01:52:56.805Z,99.90
2019-02-26T01:55:27.698Z,99.90
2019-02-26T01:57:58.710Z,99.90
2019-02-26T02:00:28.892Z,99.90
2019-02-26T02:02:58.472Z,99.90
2019-02-26T02:05:29.456Z,99.90
2019-02-26T02:07:59.529Z,99.90
2019-02-26T02:10:29.123Z,99.90
2019-02-26T02:13:00.315Z,99.90
2019-02-26T02:15:32.436Z,99.90
2019-02-26T02:18:04.036Z,99.90
2019-02-26T02:20:33.326Z,99.90
2019-02-26T02:23:04.696Z,99.90
2019-02-26T02:25:36.154Z,99.90
2019-02-26T02:28:05.546Z,99.90
2019-02-26T02:30:39.063Z,99.90
2019-02-26T02:33:08.097Z,99.90
2019-02-26T02:35:37.714Z,99.90
2019-02-26T02:38:07.357Z,99.90
2019-02-26T02:40:39.895Z,99.90
2019-02-26T02:43:10.058Z,99.90
2019-02-26T02:45:41.173Z,99.90
2019-02-26T02:48:11.771Z,99.90
2019-02-26T02:50:42.021Z,99.90
2019-02-26T02:53:11.628Z,99.90
2019-02-26T02:55:44.214Z,99.90
2019-02-26T02:58:14.992Z,99.90
2019-02-26T03:00:46.084Z,99.90
2019-02-26T03:03:15.537Z,99.90
2019-02-26T03:05:45.913Z,99.90
2019-02-26T03:08:16.448Z,99.90
2019-02-26T03:10:46.872Z,99.90
2019-02-26T03:13:16.988Z,99.90
2019-02-26T03:15:50.068Z,99.90
2019-02-26T03:18:19.168Z,99.90
2019-02-26T03:20:48.738Z,99.90
2019-02-26T03:23:19.934Z,99.90
2019-02-26T03:25:51.998Z,99.90
2019-02-26T03:28:21.169Z,99.90
2019-02-26T03:30:50.801Z,99.90
2019-02-26T03:33:20.367Z,99.90
2019-02-26T03:35:49.948Z,99.90
2019-02-26T03:38:20.751Z,99.90
2019-02-26T03:40:51.904Z,99.90
2019-02-26T03:43:22.139Z,99.90
2019-02-26T03:45:57.685Z,99.90
2019-02-26T03:48:27.257Z,99.90
2019-02-26T03:51:00.720Z,99.90
2019-02-26T03:53:31.447Z,99.90
2019-02-26T03:56:04.321Z,99.90
2019-02-26T03:58:33.021Z,99.90
2019-02-26T04:01:07.214Z,99.90
2019-02-26T04:03:35.323Z,99.90
2019-02-26T04:06:09.202Z,99.90
2019-02-26T04:08:37.565Z,99.90
2019-02-26T04:11:07.139Z,99.90
2019-02-26T04:13:37.567Z,99.90
2019-02-26T04:16:07.416Z,99.90
2019-02-26T04:18:36.986Z,99.90
2019-02-26T04:21:09.349Z,99.90
2019-02-26T04:23:42.124Z,99.90
2019-02-26T04:26:18.517Z,99.90
2019-02-26T04:29:09.146Z,99.90
2019-02-26T04:31:44.583Z,99.90
2019-02-26T04:34:18.986Z,99.90
2019-02-26T04:36:53.030Z,99.90
2019-02-26T04:39:27.114Z,99.90
2019-02-26T04:42:03.621Z,99.90
2019-02-26T04:44:58.137Z,99.90
2019-02-26T04:47:33.739Z,99.90
2019-02-26T04:50:26.095Z,99.90
2019-02-26T04:52:52.896Z,99.90
2019-02-26T04:55:22.532Z,99.90
2019-02-26T04:57:55.111Z,99.90
2019-02-26T05:00:28.012Z,99.90
2019-02-26T05:02:56.003Z,99.90
2019-02-26T05:05:27.799Z,99.90
2019-02-26T05:07:57.154Z,99.90
2019-02-26T05:10:28.983Z,99.90
2019-02-26T05:13:01.073Z,99.90
2019-02-26T05:15:33.058Z,99.90
2019-02-26T05:18:01.546Z,99.90
2019-02-26T05:20:33.876Z,99.90
2019-02-26T05:23:05.598Z,99.90
2019-02-26T05:25:37.354Z,99.90
2019-02-26T05:28:09.423Z,99.90
2019-02-26T05:30:40.253Z,99.90
2019-02-26T05:33:09.436Z,99.90
2019-02-26T05:35:40.910Z,99.90
2019-02-26T05:38:10.328Z,99.90
2019-02-26T05:40:59.197Z,99.90
2019-02-26T05:43:30.667Z,99.90
2019-02-26T05:46:03.240Z,99.90
2019-02-26T05:48:31.695Z,99.90
2019-02-26T05:51:20.549Z,99.90
2019-02-26T05:53:51.982Z,99.90
2019-02-26T05:56:22.927Z,99.90
2019-02-26T05:58:52.511Z,99.90
2019-02-26T06:01:24.851Z,99.90
2019-02-26T06:03:53.505Z,99.90
2019-02-26T06:06:23.109Z,99.90
2019-02-26T06:08:55.477Z,99.90
2019-02-26T06:11:28.363Z,99.90
2019-02-26T06:13:58.337Z,99.90
2019-02-26T06:16:28.890Z,99.90
2019-02-26T06:18:58.385Z,99.90
2019-02-26T06:21:27.954Z,99.90
2019-02-26T06:23:57.617Z,99.90
2019-02-26T06:26:30.323Z,99.90
2019-02-26T06:28:58.529Z,99.90
2019-02-26T06:31:28.117Z,99.90
2019-02-26T06:34:01.524Z,99.90
2019-02-26T06:36:49.295Z,99.90
2019-02-26T06:39:22.241Z,99.90
2019-02-26T06:41:51.349Z,99.90
2019-02-26T06:44:41.455Z,99.90
2019-02-26T06:47:11.542Z,99.90
2019-02-26T06:49:43.231Z,99.90
2019-02-26T06:52:16.259Z,99.90
2019-02-26T06:54:50.562Z,99.90
2019-02-26T06:57:16.595Z,99.90
2019-02-26T06:59:46.178Z,99.90
2019-02-26T07:02:15.775Z,99.90
2019-02-26T07:04:45.326Z,99.90
2019-02-26T07:07:14.925Z,99.90
2019-02-26T07:09:44.335Z,99.90
2019-02-26T07:12:14.593Z,99.90
2019-02-26T07:14:46.437Z,99.90
2019-02-26T07:17:16.673Z,99.90
2019-02-26T07:19:46.238Z,99.90
2019-02-26T07:22:16.490Z,99.90
2019-02-26T07:24:49.493Z,99.90
2019-02-26T07:27:18.459Z,99.90
2019-02-26T07:29:52.191Z,99.90
2019-02-26T07:32:20.229Z,99.90
2019-02-26T07:34:52.274Z,99.90
2019-02-26T07:37:21.865Z,99.90
2019-02-26T07:39:54.570Z,95.60
2019-02-26T07:42:24.138Z,88.50
2019-02-26T07:44:53.751Z,82.70
2019-02-26T07:47:24.341Z,82.70
2019-02-26T07:49:58.586Z,84.80
2019-02-26T07:52:28.310Z,78.50
2019-02-26T07:55:00.283Z,76.80
2019-02-26T07:57:32.591Z,62.50
2019-02-26T08:00:02.201Z,56.40
2019-02-26T08:02:32.519Z,66.50
2019-02-26T08:05:03.163Z,60.90
2019-02-26T08:07:32.724Z,50.30
2019-02-26T08:10:10.430Z,44.20
2019-02-26T08:12:42.589Z,40.20
2019-02-26T08:15:15.592Z,36.80
2019-02-26T08:17:50.099Z,36.90
2019-02-26T08:20:17.436Z,42.00
2019-02-26T08:22:49.004Z,50.00
2019-02-26T08:25:18.377Z,49.60
2019-02-26T08:28:07.256Z,42.20
2019-02-26T08:30:40.173Z,39.10
2019-02-26T08:33:08.321Z,36.20
2019-02-26T08:35:37.921Z,34.10
2019-02-26T08:38:07.500Z,32.70
2019-02-26T08:40:38.555Z,31.70
2019-02-26T08:43:10.821Z,30.20
2019-02-26T08:45:41.437Z,29.50
2019-02-26T08:48:13.265Z,28.50
2019-02-26T08:50:43.983Z,28.10
2019-02-26T08:53:13.855Z,27.60
2019-02-26T08:55:43.465Z,27.30
2019-02-26T08:58:13.039Z,27.60
2019-02-26T09:01:01.908Z,33.40
2019-02-26T09:03:40.413Z,32.30
2019-02-26T09:06:12.818Z,30.10
2019-02-26T09:08:38.569Z,28.50
2019-02-26T09:11:10.704Z,28.50
2019-02-26T09:13:41.163Z,27.80
2019-02-26T09:16:32.679Z,27.30
2019-02-26T09:19:22.670Z,26.40
2019-02-26T09:21:54.614Z,25.30
2019-02-26T09:24:23.779Z,25.50
2019-02-26T09:26:54.984Z,26.40
2019-02-26T09:29:48.994Z,25.80
2019-02-26T09:32:16.555Z,24.80
2019-02-26T09:35:09.299Z,25.20
2019-02-26T09:37:39.044Z,25.00
2019-02-26T09:40:29.070Z,24.20
2019-02-26T09:43:00.129Z,23.60
2019-02-26T09:45:50.601Z,23.70
2019-02-26T09:48:21.974Z,23.00
2019-02-26T09:50:51.579Z,22.60
2019-02-26T09:53:21.586Z,22.80
2019-02-26T09:55:51.197Z,22.40
2019-02-26T09:58:42.420Z,22.40
2019-02-26T10:01:13.412Z,22.10
2019-02-26T10:04:03.608Z,22.40
2019-02-26T10:06:34.948Z,22.00
2019-02-26T10:09:10.321Z,22.70
2019-02-26T10:11:57.326Z,23.30
2019-02-26T10:14:46.288Z,25.20
2019-02-26T10:17:17.372Z,24.50
2019-02-26T10:19:47.169Z,23.10
2019-02-26T10:22:16.769Z,23.90
2019-02-26T10:24:46.377Z,23.00
2019-02-26T10:27:36.156Z,25.30
2019-02-26T10:30:14.387Z,27.50
2019-02-26T10:33:02.904Z,26.50
2019-02-26T10:35:33.680Z,24.70
2019-02-26T10:38:24.199Z,25.90
2019-02-26T10:41:13.926Z,24.50
2019-02-26T10:43:43.505Z,24.10
2019-02-26T10:46:34.561Z,23.70
2019-02-26T10:49:23.554Z,23.70
2019-02-26T10:51:53.155Z,25.00
2019-02-26T10:54:22.739Z,26.30
2019-02-26T10:56:52.309Z,26.10
2019-02-26T10:59:23.555Z,25.80
2019-02-26T11:01:55.274Z,25.80
2019-02-26T11:04:46.631Z,27.00
2019-02-26T11:07:15.230Z,26.00
2019-02-26T11:09:47.298Z,24.40
2019-02-26T11:12:35.441Z,24.00
2019-02-26T11:15:09.254Z,26.00
2019-02-26T11:17:58.315Z,28.80
2019-02-26T11:20:30.739Z,29.90
2019-02-26T11:23:18.746Z,28.30
2019-02-26T11:26:10.737Z,27.40
2019-02-26T11:28:58.284Z,26.30
2019-02-26T11:31:27.842Z,25.30
2019-02-26T11:34:01.034Z,25.20
2019-02-26T11:36:48.076Z,28.60
2019-02-26T11:39:17.681Z,28.00
2019-02-26T11:41:48.268Z,27.90
2019-02-26T11:44:20.598Z,27.60
2019-02-26T11:46:51.378Z,27.60
2019-02-26T11:49:21.800Z,27.50
2019-02-26T11:51:52.373Z,25.90
2019-02-26T11:54:22.005Z,26.00
2019-02-26T11:56:52.545Z,25.30
2019-02-26T11:59:42.845Z,26.30
2019-02-26T12:02:12.537Z,25.60
2019-02-26T12:05:02.884Z,27.60
2019-02-26T12:07:53.830Z,29.10
2019-02-26T12:10:23.564Z,28.10
2019-02-26T12:12:54.033Z,27.10
2019-02-26T12:15:24.478Z,28.80
2019-02-26T12:17:56.315Z,27.30
2019-02-26T12:20:25.460Z,26.50
2019-02-26T12:22:55.450Z,25.80
2019-02-26T12:25:25.247Z,25.40
2019-02-26T12:27:54.917Z,26.20
2019-02-26T12:30:26.818Z,26.80
2019-02-26T12:32:56.667Z,26.40
2019-02-26T12:35:45.526Z,27.20
2019-02-26T12:38:18.865Z,27.40
2019-02-26T12:40:47.929Z,27.90
2019-02-26T12:43:19.134Z,29.00
2019-02-26T12:45:49.024Z,28.60
2019-02-26T12:48:21.940Z,28.00
2019-02-26T12:50:55.655Z,27.10
2019-02-26T12:53:25.685Z,26.40
2019-02-26T12:55:56.595Z,26.20
2019-02-26T12:58:27.927Z,27.60
2019-02-26T13:01:16.951Z,27.50
2019-02-26T13:03:51.174Z,27.00
2019-02-26T13:06:18.713Z,26.30
2019-02-26T13:08:50.681Z,25.90
2019-02-26T13:13:53.506Z,24.20
2019-02-26T13:16:23.483Z,25.10
2019-02-26T13:19:00.129Z,24.90
2019-02-26T13:21:24.955Z,26.70
2019-02-26T13:23:58.663Z,27.30
2019-02-26T13:26:25.906Z,26.60
2019-02-26T13:28:56.064Z,27.20
2019-02-26T13:31:28.295Z,27.10
2019-02-26T13:33:57.996Z,27.00
2019-02-26T13:36:27.730Z,28.30
2019-02-26T13:38:57.329Z,28.50
2019-02-26T13:41:30.253Z,30.30
2019-02-26T13:43:59.834Z,29.50
2019-02-26T13:46:29.749Z,28.10
2019-02-26T13:49:00.692Z,27.60
2019-02-26T13:51:30.274Z,27.90
2019-02-26T13:53:59.936Z,26.90
2019-02-26T13:56:29.509Z,27.60
2019-02-26T13:58:59.081Z,26.20
2019-02-26T14:01:28.676Z,27.60
2019-02-26T14:03:58.316Z,29.20
2019-02-26T14:06:28.350Z,29.00
2019-02-26T14:08:57.941Z,30.50
2019-02-26T14:11:27.544Z,29.60
2019-02-26T14:13:58.672Z,29.70
2019-02-26T14:16:33.962Z,29.20
2019-02-26T14:19:03.563Z,29.40
2019-02-26T14:21:33.162Z,28.10
2019-02-26T14:24:08.587Z,27.90
2019-02-26T14:26:38.200Z,29.20
2019-02-26T14:29:08.006Z,28.80
2019-02-26T14:31:37.702Z,26.80
2019-02-26T14:34:07.343Z,27.30
2019-02-26T14:36:36.950Z,29.90
2019-02-26T14:39:08.198Z,31.20
2019-02-26T14:41:38.000Z,29.00
2019-02-26T14:44:07.603Z,28.20
2019-02-26T14:46:37.225Z,29.20
2019-02-26T14:49:06.824Z,30.90
2019-02-26T14:51:38.265Z,31.90
2019-02-26T14:54:07.946Z,32.20
2019-02-26T14:56:37.564Z,33.00
2019-02-26T14:59:09.556Z,33.10
2019-02-26T15:01:58.426Z,33.90
2019-02-26T15:04:28.014Z,34.10
2019-02-26T15:06:57.642Z,34.50
2019-02-26T15:09:27.332Z,34.50
2019-02-26T15:11:56.944Z,34.30
2019-02-26T15:14:26.553Z,34.10
2019-02-26T15:16:56.157Z,34.70
2019-02-26T15:19:25.736Z,35.30
2019-02-26T15:21:57.187Z,36.10
2019-02-26T15:24:27.048Z,35.80
2019-02-26T15:26:56.655Z,35.50
2019-02-26T15:29:29.315Z,35.50
2019-02-26T15:31:58.945Z,36.00
2019-02-26T15:34:47.831Z,36.00
2019-02-26T15:37:17.449Z,36.40
2019-02-26T15:39:47.040Z,36.70
2019-02-26T15:42:19.106Z,36.70
2019-02-26T15:44:49.647Z,37.00
2019-02-26T15:47:19.245Z,36.90
2019-02-26T15:49:48.808Z,36.40
2019-02-26T15:52:22.210Z,37.00
2019-02-26T15:54:51.404Z,37.40
2019-02-26T15:57:20.986Z,37.40
2019-02-26T15:59:51.337Z,37.30
2019-02-26T16:02:20.887Z,37.50
2019-02-26T16:05:30.496Z,37.60
2019-02-26T16:08:00.276Z,37.90
2019-02-26T16:10:29.840Z,38.10
2019-02-26T16:13:01.051Z,38.40
2019-02-26T16:15:30.770Z,38.40
2019-02-26T16:18:00.353Z,38.30
2019-02-26T16:20:30.514Z,38.30
2019-02-26T16:23:00.118Z,38.90
2019-02-26T16:25:29.747Z,38.60
2019-02-26T16:27:59.363Z,38.90
2019-02-26T16:30:30.151Z,39.40
2019-02-26T16:32:59.790Z,40.10
2019-02-26T16:35:29.454Z,40.20
2019-02-26T16:37:59.060Z,40.00
2019-02-26T16:40:31.710Z,40.10
2019-02-26T16:43:00.076Z,40.40
2019-02-26T16:45:34.310Z,40.50
2019-02-26T16:48:02.048Z,41.50
2019-02-26T16:50:50.962Z,41.20
2019-02-26T16:53:20.692Z,41.30
2019-02-26T16:55:50.419Z,41.70
2019-02-26T16:58:35.204Z,42.20
2019-02-26T17:01:05.911Z,41.90
2019-02-26T17:03:35.634Z,41.90
2019-02-26T17:06:05.611Z,42.60
2019-02-26T17:08:35.046Z,43.10
2019-02-26T17:11:23.968Z,44.40
2019-02-26T17:13:55.048Z,45.90
2019-02-26T17:16:24.489Z,47.30
2019-02-26T17:19:15.338Z,48.70
2019-02-26T17:22:04.546Z,50.10
2019-02-26T17:24:34.784Z,51.20
2019-02-26T17:27:05.708Z,52.80
2019-02-26T17:29:35.866Z,54.20
2019-02-26T17:32:05.613Z,56.00
2019-02-26T17:34:42.194Z,58.40
2019-02-26T17:37:14.531Z,59.90
2019-02-26T17:39:44.104Z,63.70
2019-02-26T17:42:15.602Z,65.50
2019-02-26T17:44:46.581Z,69.30
2019-02-26T17:47:17.672Z,74.70
2019-02-26T17:49:47.571Z,79.00
2019-02-26T17:52:17.160Z,84.00
2019-02-26T17:54:46.726Z,87.40
2019-02-26T17:57:16.301Z,90.80
2019-02-26T17:59:45.946Z,92.40
2019-02-26T18:02:15.771Z,93.50
2019-02-26T18:04:45.335Z,93.80
2019-02-26T18:07:14.939Z,95.30
2019-02-26T18:09:47.266Z,94.90
2019-02-26T18:12:16.867Z,96.10
2019-02-26T18:14:46.820Z,96.20
2019-02-26T18:17:16.682Z,97.20
2019-02-26T18:19:49.398Z,98.80
2019-02-26T18:22:21.388Z,99.90
2019-02-26T18:24:50.591Z,99.90
2019-02-26T18:27:21.679Z,99.90
2019-02-26T18:29:51.539Z,99.90
2019-02-26T18:32:21.117Z,99.90
2019-02-26T18:34:50.694Z,99.90
2019-02-26T18:37:24.455Z,99.90
2019-02-26T18:39:54.731Z,99.90
2019-02-26T18:42:24.910Z,99.90
2019-02-26T18:44:54.663Z,99.90
2019-02-26T18:47:24.312Z,99.90
2019-02-26T18:49:55.537Z,99.90
2019-02-26T18:52:25.226Z,99.90
2019-02-26T18:54:55.093Z,99.90
2019-02-26T18:57:26.226Z,99.90
2019-02-26T18:59:56.054Z,99.90
2019-02-26T19:02:25.643Z,99.90
2019-02-26T19:04:55.218Z,99.90
2019-02-26T19:07:35.121Z,99.90
2019-02-26T19:10:07.548Z,99.90
2019-02-26T19:12:37.139Z,99.90
2019-02-26T19:15:12.606Z,99.90
2019-02-26T19:17:45.242Z,99.90
2019-02-26T19:20:19.276Z,99.90
2019-02-26T19:23:02.109Z,99.90
2019-02-26T19:25:31.841Z,99.90
2019-02-26T19:28:04.581Z,99.90
2019-02-26T19:30:36.735Z,99.90
2019-02-26T19:33:26.282Z,99.90
2019-02-26T19:35:55.836Z,99.90
2019-02-26T19:38:27.527Z,99.90
2019-02-26T19:41:01.410Z,99.90
2019-02-26T19:43:32.490Z,99.90
2019-02-26T19:46:02.280Z,99.90
2019-02-26T19:48:33.863Z,99.90
2019-02-26T19:51:03.277Z,99.90
2019-02-26T19:53:34.717Z,99.90
2019-02-26T19:56:04.995Z,99.90
2019-02-26T19:58:34.694Z,99.90
2019-02-26T20:01:05.741Z,99.90
2019-02-26T20:03:39.832Z,99.90
2019-02-26T20:06:07.585Z,99.90
2019-02-26T20:08:37.149Z,99.90
2019-02-26T20:11:12.978Z,99.90
2019-02-26T20:13:42.573Z,99.90
2019-02-26T20:16:15.054Z,99.90
2019-02-26T20:18:44.682Z,99.90
2019-02-26T20:21:14.257Z,99.90
2019-02-26T20:23:43.835Z,99.90
2019-02-26T20:26:16.014Z,99.90
2019-02-26T20:28:44.730Z,99.90
2019-02-26T20:31:14.298Z,99.90
2019-02-26T20:33:45.379Z,99.90
2019-02-26T20:36:20.728Z,99.90
2019-02-26T20:38:50.300Z,99.90
2019-02-26T20:41:22.252Z,99.90
2019-02-26T20:43:52.463Z,99.90
2019-02-26T20:46:24.999Z,99.90
2019-02-26T20:48:59.277Z,99.90
2019-02-26T20:51:28.880Z,99.90
2019-02-26T20:53:58.446Z,99.90
2019-02-26T20:56:28.582Z,99.90
2019-02-26T20:58:59.427Z,99.90
2019-02-26T21:01:29.714Z,99.90
2019-02-26T21:04:00.301Z,99.90
2019-02-26T21:06:31.489Z,99.90
2019-02-26T21:09:04.823Z,99.90
2019-02-26T21:11:32.379Z,99.90
2019-02-26T21:14:02.137Z,99.90
2019-02-26T21:16:31.709Z,99.90
2019-02-26T21:19:02.867Z,99.90
2019-02-26T21:21:32.812Z,99.90
2019-02-26T21:24:02.409Z,99.90
2019-02-26T21:26:31.971Z,99.90
2019-02-26T21:29:05.685Z,99.90
2019-02-26T21:31:32.868Z,99.90
2019-02-26T21:34:03.979Z,99.90
2019-02-26T21:36:33.806Z,99.90
2019-02-26T21:39:03.438Z,99.90
2019-02-26T21:41:34.073Z,99.90
2019-02-26T21:44:03.662Z,99.90
2019-02-26T21:46:33.221Z,99.90
2019-02-26T21:49:02.801Z,99.90
2019-02-26T21:51:33.877Z,99.90
2019-02-26T21:54:03.676Z,99.90
2019-02-26T21:56:33.247Z,99.90
2019-02-26T21:59:03.741Z,99.90
2019-02-26T22:01:33.318Z,99.90
2019-02-26T22:04:02.902Z,99.90
2019-02-26T22:06:32.509Z,99.90
2019-02-26T22:09:02.097Z,99.90
2019-02-26T22:11:31.661Z,99.90
2019-02-26T22:14:02.934Z,99.90
2019-02-26T22:16:32.557Z,99.90
2019-02-26T22:19:02.168Z,99.90
2019-02-26T22:21:31.797Z,99.90
2019-02-26T22:24:01.360Z,99.90
2019-02-26T22:26:30.961Z,99.90
2019-02-26T22:29:00.564Z,99.90
2019-02-26T22:31:30.153Z,99.90
2019-02-26T22:33:59.754Z,99.90
2019-02-26T22:36:30.783Z,99.90
2019-02-26T22:39:00.681Z,99.90
2019-02-26T22:41:32.791Z,99.90
2019-02-26T22:44:01.615Z,99.90
2019-02-26T22:46:33.825Z,99.90
2019-02-26T22:49:03.913Z,99.90
2019-02-26T22:51:33.510Z,99.90
2019-02-26T22:54:03.166Z,99.90
2019-02-26T22:56:33.284Z,99.90
2019-02-26T22:59:03.025Z,99.90
2019-02-26T23:01:36.575Z,99.90
2019-02-26T23:04:06.793Z,99.90
2019-02-26T23:06:36.403Z,99.90
2019-02-26T23:09:08.258Z,99.90
2019-02-26T23:11:39.685Z,99.90
2019-02-26T23:14:09.817Z,99.90
2019-02-26T23:16:41.081Z,99.90
2019-02-26T23:19:10.939Z,99.90
2019-02-26T23:21:41.557Z,99.90
2019-02-26T23:24:11.313Z,99.90
2019-02-26T23:26:42.510Z,99.90
2019-02-26T23:29:12.176Z,99.90
2019-02-26T23:31:42.314Z,99.90
2019-02-26T23:34:12.077Z,99.90
2019-02-26T23:36:41.795Z,99.90
2019-02-26T23:39:13.973Z,99.90
2019-02-26T23:41:45.045Z,99.90
2019-02-26T23:44:17.799Z,99.90
2019-02-26T23:46:48.056Z,99.90
2019-02-26T23:49:17.691Z,99.90
2019-02-26T23:51:47.282Z,99.90
2019-02-26T23:54:22.737Z,99.90
2019-02-26T23:56:52.714Z,99.90
2019-02-26T23:59:22.449Z,99.90
